createdAt,value
2023-03-17T00:00:04.308Z,56.74
2023-03-17T00:01:13.928Z,57.07
2023-03-17T00:02:16.481Z,57.27
2023-03-17T00:03:27.089Z,57.04
2023-03-17T00:04:29.039Z,57.47
2023-03-17T00:05:33.906Z,57.88
2023-03-17T00:06:37.035Z,57.67
2023-03-17T00:07:39.245Z,58.27
2023-03-17T00:08:41.445Z,57.25
2023-03-17T00:09:43.466Z,56.64
2023-03-17T00:10:46.079Z,56.73
2023-03-17T00:11:49.056Z,57.49
2023-03-17T00:12:56.249Z,56.67
2023-03-17T00:13:58.163Z,56.98
2023-03-17T00:15:00.072Z,57.15
2023-03-17T00:16:05.107Z,56.66
2023-03-17T00:17:09.924Z,56.95
2023-03-17T00:18:17.788Z,57.26
2023-03-17T00:19:31.402Z,57.43
2023-03-17T00:20:33.415Z,57.18
2023-03-17T00:21:35.835Z,57.00
2023-03-17T00:22:37.846Z,56.40
2023-03-17T00:23:40.963Z,56.61
2023-03-17T00:24:42.823Z,56.67
2023-03-17T00:25:45.496Z,57.14
2023-03-17T00:26:48.298Z,57.21
2023-03-17T00:27:50.367Z,56.94
2023-03-17T00:28:54.452Z,56.71
2023-03-17T00:29:56.438Z,56.26
2023-03-17T00:31:06.681Z,56.66
2023-03-17T00:32:17.916Z,57.57
2023-03-17T00:33:22.896Z,57.89
2023-03-17T00:34:25.057Z,57.43
2023-03-17T00:35:30.264Z,57.66
2023-03-17T00:36:34.267Z,56.90
2023-03-17T00:37:37.984Z,56.77
2023-03-17T00:38:39.866Z,56.73
2023-03-17T00:39:42.087Z,56.66
2023-03-17T00:42:48.410Z,55.69
2023-03-17T00:43:50.814Z,57.01
2023-03-17T00:44:53.157Z,57.39
2023-03-17T00:45:55.160Z,57.23
2023-03-17T00:46:57.909Z,56.58
2023-03-17T00:48:03.353Z,56.25
2023-03-17T00:49:21.281Z,56.67
2023-03-17T00:50:27.713Z,56.97
2023-03-17T00:51:29.979Z,56.69
2023-03-17T00:52:32.519Z,56.24
2023-03-17T00:53:34.533Z,55.96
2023-03-17T00:54:36.661Z,57.64
2023-03-17T00:55:38.943Z,57.26
2023-03-17T00:56:41.748Z,57.75
2023-03-17T00:57:44.266Z,57.37
2023-03-17T00:58:47.676Z,57.02
2023-03-17T00:59:50.414Z,58.14
2023-03-17T01:00:53.680Z,59.12
2023-03-17T01:01:56.333Z,58.20
2023-03-17T01:02:58.242Z,57.81
2023-03-17T01:04:01.927Z,58.31
2023-03-17T01:05:06.775Z,58.23
2023-03-17T01:06:12.835Z,58.24
2023-03-17T01:07:15.377Z,57.66
2023-03-17T01:08:17.872Z,57.63
2023-03-17T01:09:21.857Z,57.54
2023-03-17T01:10:26.670Z,59.11
2023-03-17T01:11:28.828Z,59.82
2023-03-17T01:12:31.031Z,59.97
2023-03-17T01:13:32.987Z,58.91
2023-03-17T01:14:37.819Z,58.99
2023-03-17T01:15:43.769Z,58.73
2023-03-17T01:16:47.757Z,58.61
2023-03-17T01:17:51.236Z,57.96
2023-03-17T01:18:53.600Z,58.64
2023-03-17T01:19:55.477Z,59.17
2023-03-17T01:20:57.515Z,58.44
2023-03-17T01:22:00.416Z,58.28
2023-03-17T01:23:02.504Z,58.86
2023-03-17T01:24:04.973Z,58.73
2023-03-17T01:25:07.139Z,58.66
2023-03-17T01:26:09.613Z,58.56
2023-03-17T01:27:12.367Z,58.28
2023-03-17T01:28:16.860Z,58.63
2023-03-17T01:29:18.708Z,57.97
2023-03-17T01:30:20.676Z,57.20
2023-03-17T01:31:23.552Z,57.15
2023-03-17T01:32:25.938Z,57.25
2023-03-17T01:33:27.944Z,57.27
2023-03-17T01:34:29.823Z,57.97
2023-03-17T01:35:31.841Z,58.71
2023-03-17T01:36:34.439Z,59.43
2023-03-17T01:37:37.779Z,58.94
2023-03-17T01:38:39.671Z,58.63
2023-03-17T01:39:41.980Z,58.74
2023-03-17T01:40:50.124Z,58.79
2023-03-17T01:41:56.762Z,58.35
2023-03-17T01:43:10.733Z,58.25
2023-03-17T01:44:18.509Z,58.06
2023-03-17T01:45:58.862Z,57.39
2023-03-17T01:47:01.156Z,58.83
2023-03-17T01:48:03.692Z,58.17
2023-03-17T01:49:23.893Z,58.33
2023-03-17T01:50:26.109Z,58.96
2023-03-17T01:51:57.531Z,58.73
2023-03-17T01:53:00.411Z,59.60
2023-03-17T01:54:08.513Z,58.94
2023-03-17T01:55:16.073Z,59.31
2023-03-17T01:56:18.905Z,58.78
2023-03-17T01:57:29.420Z,58.47
2023-03-17T01:58:33.464Z,59.01
2023-03-17T01:59:39.729Z,59.14
2023-03-17T02:00:41.933Z,58.90
2023-03-17T02:01:47.627Z,59.41
2023-03-17T02:02:52.706Z,59.13
2023-03-17T02:03:56.280Z,59.06
2023-03-17T02:04:58.994Z,58.65
2023-03-17T02:06:02.240Z,58.73
2023-03-17T02:07:05.241Z,58.64
2023-03-17T02:08:15.173Z,59.10
2023-03-17T02:09:17.420Z,58.61
2023-03-17T02:10:21.532Z,58.66
2023-03-17T02:11:24.036Z,59.20
2023-03-17T02:12:29.058Z,58.86
2023-03-17T02:13:32.987Z,58.79
2023-03-17T02:14:36.467Z,58.84
2023-03-17T02:15:44.409Z,59.09
2023-03-17T02:16:46.935Z,59.00
2023-03-17T02:17:51.176Z,59.12
2023-03-17T02:18:53.057Z,59.03
2023-03-17T02:19:56.323Z,58.97
2023-03-17T02:20:58.714Z,59.21
2023-03-17T02:22:01.382Z,59.67
2023-03-17T02:23:04.453Z,59.36
2023-03-17T02:24:20.713Z,59.34
2023-03-17T02:25:25.072Z,58.76
2023-03-17T02:26:31.360Z,59.53
2023-03-17T02:27:37.223Z,59.87
2023-03-17T02:28:39.686Z,60.22
2023-03-17T02:29:42.463Z,60.18
2023-03-17T02:30:44.989Z,60.24
2023-03-17T02:31:47.546Z,60.33
2023-03-17T02:32:50.682Z,60.41
2023-03-17T02:33:53.679Z,60.25
2023-03-17T02:34:56.093Z,60.46
2023-03-17T02:35:58.513Z,60.58
2023-03-17T02:37:00.422Z,60.42
2023-03-17T02:38:02.625Z,59.33
2023-03-17T02:39:05.424Z,58.71
2023-03-17T02:40:08.349Z,57.89
2023-03-17T02:41:10.834Z,57.88
2023-03-17T02:42:13.397Z,58.42
2023-03-17T02:43:15.223Z,58.38
2023-03-17T02:44:17.521Z,58.28
2023-03-17T02:45:20.541Z,58.70
2023-03-17T02:46:23.202Z,58.36
2023-03-17T02:47:26.086Z,58.51
2023-03-17T02:48:28.397Z,58.74
2023-03-17T02:49:31.895Z,57.67
2023-03-17T02:50:33.788Z,57.86
2023-03-17T02:51:36.549Z,57.67
2023-03-17T02:52:38.410Z,57.70
2023-03-17T02:53:40.381Z,57.79
2023-03-17T02:54:42.791Z,59.08
2023-03-17T02:55:44.664Z,59.21
2023-03-17T02:56:46.875Z,58.20
2023-03-17T02:57:48.820Z,58.23
2023-03-17T02:58:51.060Z,59.05
2023-03-17T02:59:52.970Z,59.53
2023-03-17T03:00:54.904Z,58.91
2023-03-17T03:01:57.304Z,58.30
2023-03-17T03:02:59.247Z,58.20
2023-03-17T03:04:02.272Z,58.95
2023-03-17T03:05:05.622Z,58.51
2023-03-17T03:06:07.914Z,58.59
2023-03-17T03:07:10.566Z,58.11
2023-03-17T03:08:12.399Z,57.83
2023-03-17T03:09:15.379Z,58.79
2023-03-17T03:10:18.638Z,58.37
2023-03-17T03:11:20.650Z,57.39
2023-03-17T03:12:22.827Z,56.83
2023-03-17T03:13:24.715Z,57.07
2023-03-17T03:14:27.146Z,57.45
2023-03-17T03:15:29.066Z,57.75
2023-03-17T03:16:30.999Z,57.33
2023-03-17T03:17:33.421Z,56.94
2023-03-17T03:18:37.164Z,57.10
2023-03-17T03:19:39.622Z,56.34
2023-03-17T03:20:45.053Z,56.24
2023-03-17T03:21:47.071Z,55.98
2023-03-17T03:22:49.253Z,55.82
2023-03-17T03:23:51.209Z,55.89
2023-03-17T03:24:53.155Z,55.61
2023-03-17T03:25:55.069Z,55.64
2023-03-17T03:26:57.268Z,55.86
2023-03-17T03:27:59.509Z,56.04
2023-03-17T03:29:01.455Z,56.08
2023-03-17T03:30:04.271Z,57.20
2023-03-17T03:31:06.718Z,57.16
2023-03-17T03:32:09.008Z,57.06
2023-03-17T03:33:13.315Z,56.58
2023-03-17T03:34:16.121Z,56.53
2023-03-17T03:35:18.030Z,56.57
2023-03-17T03:36:20.521Z,56.65
2023-03-17T03:37:22.435Z,57.04
2023-03-17T03:38:24.797Z,57.82
2023-03-17T03:39:26.838Z,58.33
2023-03-17T03:40:29.110Z,59.61
2023-03-17T03:41:31.213Z,59.50
2023-03-17T03:42:33.497Z,60.40
2023-03-17T03:43:36.242Z,60.51
2023-03-17T03:44:38.151Z,60.54
2023-03-17T03:45:40.043Z,59.95
2023-03-17T03:46:41.909Z,59.30
2023-03-17T03:47:43.843Z,59.24
2023-03-17T03:48:46.042Z,59.02
2023-03-17T03:49:47.995Z,59.45
2023-03-17T03:50:49.982Z,59.51
2023-03-17T03:51:51.911Z,59.53
2023-03-17T03:52:53.761Z,59.57
2023-03-17T03:53:55.947Z,59.58
2023-03-17T03:54:57.796Z,59.63
2023-03-17T03:55:59.852Z,59.25
2023-03-17T03:57:01.788Z,59.05
2023-03-17T03:58:03.801Z,59.24
2023-03-17T03:59:06.205Z,59.32
2023-03-17T04:00:09.499Z,60.04
2023-03-17T04:01:14.148Z,60.39
2023-03-17T04:02:17.122Z,59.96
2023-03-17T04:03:19.285Z,59.64
2023-03-17T04:04:21.820Z,60.05
2023-03-17T04:05:23.728Z,60.22
2023-03-17T04:06:25.692Z,60.45
2023-03-17T04:07:28.019Z,60.93
2023-03-17T04:08:31.809Z,60.65
2023-03-17T04:09:34.923Z,60.77
2023-03-17T04:10:37.392Z,60.88
2023-03-17T04:11:39.361Z,60.85
2023-03-17T04:12:42.946Z,60.57
2023-03-17T04:13:44.811Z,60.17
2023-03-17T04:14:46.921Z,59.29
2023-03-17T04:15:48.788Z,58.75
2023-03-17T04:16:50.670Z,58.67
2023-03-17T04:17:55.038Z,58.41
2023-03-17T04:18:57.501Z,57.88
2023-03-17T04:19:59.822Z,58.12
2023-03-17T04:21:01.652Z,57.75
2023-03-17T04:22:03.757Z,57.62
2023-03-17T04:23:06.120Z,57.94
2023-03-17T04:24:09.047Z,57.80
2023-03-17T04:25:13.578Z,58.64
2023-03-17T04:26:17.367Z,58.94
2023-03-17T04:27:19.309Z,59.46
2023-03-17T04:28:22.528Z,60.43
2023-03-17T04:29:24.443Z,60.80
2023-03-17T04:30:26.448Z,60.89
2023-03-17T04:31:28.404Z,61.15
2023-03-17T04:32:30.814Z,60.76
2023-03-17T04:33:33.550Z,59.70
2023-03-17T04:34:36.505Z,60.14
2023-03-17T04:35:38.394Z,60.65
2023-03-17T04:36:40.870Z,60.21
2023-03-17T04:37:42.838Z,60.46
2023-03-17T04:38:45.356Z,60.63
2023-03-17T04:39:47.436Z,60.50
2023-03-17T04:40:50.523Z,61.30
2023-03-17T04:41:52.488Z,60.47
2023-03-17T04:42:54.442Z,59.12
2023-03-17T04:43:56.681Z,58.73
2023-03-17T04:44:58.561Z,58.48
2023-03-17T04:46:00.913Z,58.33
2023-03-17T04:47:03.098Z,57.94
2023-03-17T04:48:05.875Z,57.78
2023-03-17T04:49:08.504Z,57.60
2023-03-17T04:50:11.013Z,57.58
2023-03-17T04:51:12.900Z,57.42
2023-03-17T04:52:14.788Z,57.39
2023-03-17T04:53:16.787Z,58.09
2023-03-17T04:54:19.014Z,58.54
2023-03-17T04:55:21.221Z,58.32
2023-03-17T04:56:23.266Z,58.77
2023-03-17T04:57:25.206Z,58.84
2023-03-17T04:58:31.016Z,59.10
2023-03-17T04:59:33.441Z,59.69
2023-03-17T05:00:38.987Z,59.16
2023-03-17T05:01:41.175Z,59.92
2023-03-17T05:02:43.099Z,60.29
2023-03-17T05:03:45.513Z,60.49
2023-03-17T05:04:47.963Z,59.81
2023-03-17T05:05:50.735Z,59.45
2023-03-17T05:06:53.046Z,58.85
2023-03-17T05:07:55.028Z,59.45
2023-03-17T05:08:57.002Z,59.87
2023-03-17T05:09:59.112Z,60.29
2023-03-17T05:11:01.252Z,61.00
2023-03-17T05:12:03.263Z,61.33
2023-03-17T05:13:05.197Z,61.39
2023-03-17T05:14:07.088Z,61.85
2023-03-17T05:15:10.064Z,61.73
2023-03-17T05:16:12.440Z,61.59
2023-03-17T05:17:14.738Z,61.61
2023-03-17T05:18:17.017Z,60.88
2023-03-17T05:19:19.100Z,60.44
2023-03-17T05:20:21.261Z,61.04
2023-03-17T05:21:23.164Z,61.26
2023-03-17T05:22:25.041Z,61.99
2023-03-17T05:23:27.140Z,60.77
2023-03-17T05:24:28.986Z,59.92
2023-03-17T05:25:31.261Z,59.53
2023-03-17T05:26:33.325Z,59.97
2023-03-17T05:27:35.444Z,97.13
2023-03-17T05:28:37.309Z,91.41
2023-03-17T05:29:39.289Z,63.74
2023-03-17T05:30:43.537Z,64.85
2023-03-17T05:31:46.115Z,53.63
2023-03-17T05:32:48.058Z,52.15
2023-03-17T05:33:51.067Z,53.07
2023-03-17T05:34:53.306Z,53.13
2023-03-17T05:35:55.715Z,54.36
2023-03-17T05:36:57.585Z,54.93
2023-03-17T05:37:59.631Z,56.42
2023-03-17T05:39:01.559Z,56.23
2023-03-17T05:40:03.620Z,56.91
2023-03-17T05:41:05.808Z,57.48
2023-03-17T05:42:08.542Z,57.63
2023-03-17T05:43:11.313Z,54.96
2023-03-17T05:44:13.538Z,50.15
2023-03-17T05:45:16.156Z,45.82
2023-03-17T05:46:20.457Z,43.16
2023-03-17T05:47:23.104Z,40.39
2023-03-17T05:48:25.357Z,38.74
2023-03-17T05:49:28.296Z,37.50
2023-03-17T05:50:30.920Z,36.12
2023-03-17T05:51:35.215Z,34.99
2023-03-17T05:52:38.736Z,33.98
2023-03-17T05:53:41.063Z,33.77
2023-03-17T05:54:43.035Z,34.23
2023-03-17T05:55:45.346Z,35.45
2023-03-17T05:56:47.702Z,37.30
2023-03-17T05:57:49.681Z,39.40
2023-03-17T05:58:51.651Z,41.24
2023-03-17T05:59:54.391Z,41.18
2023-03-17T06:00:57.036Z,40.99
2023-03-17T06:01:59.276Z,40.90
2023-03-17T06:03:02.354Z,41.17
2023-03-17T06:04:04.493Z,41.46
2023-03-17T06:05:08.509Z,40.97
2023-03-17T06:06:10.601Z,41.78
2023-03-17T06:07:13.123Z,41.36
2023-03-17T06:08:15.242Z,40.98
2023-03-17T06:09:18.124Z,41.42
2023-03-17T06:10:20.115Z,41.85
2023-03-17T06:11:22.148Z,41.99
2023-03-17T06:12:24.689Z,42.63
2023-03-17T06:13:27.129Z,42.89
2023-03-17T06:14:29.074Z,43.16
2023-03-17T06:15:31.897Z,43.06
2023-03-17T06:16:33.858Z,43.07
2023-03-17T06:17:37.116Z,43.11
2023-03-17T06:18:39.548Z,42.56
2023-03-17T06:19:41.799Z,42.25
2023-03-17T06:20:43.668Z,43.12
2023-03-17T06:21:45.642Z,42.66
2023-03-17T06:23:02.638Z,42.62
2023-03-17T06:24:05.378Z,42.25
2023-03-17T06:25:08.475Z,41.86
2023-03-17T06:26:10.996Z,41.61
2023-03-17T06:27:14.334Z,43.03
2023-03-17T06:28:16.966Z,44.67
2023-03-17T06:29:19.740Z,44.32
2023-03-17T06:30:22.519Z,44.13
2023-03-17T06:31:24.495Z,44.93
2023-03-17T06:32:27.078Z,44.82
2023-03-17T06:33:29.968Z,43.53
2023-03-17T06:34:32.641Z,42.51
2023-03-17T06:35:35.134Z,42.38
2023-03-17T06:36:39.262Z,44.13
2023-03-17T06:37:41.612Z,43.44
2023-03-17T06:38:44.282Z,42.47
2023-03-17T06:39:46.201Z,42.53
2023-03-17T06:40:48.126Z,42.44
2023-03-17T06:41:51.184Z,42.98
2023-03-17T06:42:53.451Z,43.82
2023-03-17T06:43:56.510Z,43.53
2023-03-17T06:44:58.422Z,42.13
2023-03-17T06:46:01.215Z,42.41
2023-03-17T06:47:03.237Z,41.70
2023-03-17T06:48:05.353Z,40.78
2023-03-17T06:49:08.041Z,39.62
2023-03-17T06:50:12.250Z,39.89
2023-03-17T06:51:14.238Z,38.71
2023-03-17T06:52:16.229Z,38.41
2023-03-17T06:53:18.301Z,38.10
2023-03-17T06:54:21.434Z,37.45
2023-03-17T06:55:23.431Z,37.48
2023-03-17T06:56:30.345Z,36.55
2023-03-17T06:57:32.666Z,36.52
2023-03-17T06:58:34.550Z,36.41
2023-03-17T06:59:36.921Z,35.93
2023-03-17T07:00:40.205Z,36.41
2023-03-17T07:01:42.203Z,36.25
2023-03-17T07:02:44.448Z,36.66
2023-03-17T07:03:46.650Z,35.60
2023-03-17T07:04:48.926Z,35.80
2023-03-17T07:05:51.268Z,36.00
2023-03-17T07:06:53.235Z,35.42
2023-03-17T07:07:55.098Z,35.05
2023-03-17T07:08:57.660Z,34.38
2023-03-17T07:09:59.781Z,34.83
2023-03-17T07:11:03.987Z,34.42
2023-03-17T07:12:06.125Z,35.48
2023-03-17T07:13:08.598Z,35.28
2023-03-17T07:14:11.029Z,34.39
2023-03-17T07:15:13.614Z,35.19
2023-03-17T07:16:16.876Z,34.64
2023-03-17T07:17:19.697Z,34.29
2023-03-17T07:18:21.590Z,34.19
2023-03-17T07:19:23.473Z,34.72
2023-03-17T07:20:25.684Z,34.19
2023-03-17T07:21:28.142Z,33.60
2023-03-17T07:22:30.125Z,34.04
2023-03-17T07:23:32.139Z,33.87
2023-03-17T07:24:34.488Z,33.72
2023-03-17T07:25:36.895Z,33.37
2023-03-17T07:26:38.786Z,33.70
2023-03-17T07:27:40.887Z,33.44
2023-03-17T07:28:42.808Z,33.49
2023-03-17T07:29:45.051Z,33.33
2023-03-17T07:30:49.236Z,33.39
2023-03-17T07:31:51.265Z,32.96
2023-03-17T07:32:53.943Z,33.14
2023-03-17T07:33:57.634Z,49.18
2023-03-17T07:34:59.703Z,34.78
2023-03-17T07:36:02.147Z,32.28
2023-03-17T07:37:05.274Z,31.91
2023-03-17T07:38:07.397Z,31.52
2023-03-17T07:39:11.483Z,32.01
2023-03-17T07:40:14.017Z,32.02
2023-03-17T07:41:16.327Z,32.16
2023-03-17T07:42:18.344Z,31.96
2023-03-17T07:43:20.194Z,31.59
2023-03-17T07:44:23.315Z,31.66
2023-03-17T07:45:25.413Z,31.19
2023-03-17T07:46:27.837Z,31.92
2023-03-17T07:47:29.725Z,31.57
2023-03-17T07:48:33.340Z,31.26
2023-03-17T07:49:41.727Z,31.45
2023-03-17T07:50:44.552Z,31.54
2023-03-17T07:51:46.922Z,31.55
2023-03-17T07:52:48.772Z,30.73
2023-03-17T07:53:50.979Z,31.17
2023-03-17T07:54:53.134Z,32.13
2023-03-17T07:55:55.243Z,30.38
2023-03-17T07:56:57.446Z,30.92
2023-03-17T07:57:59.883Z,30.84
2023-03-17T07:59:02.485Z,30.46
2023-03-17T08:00:10.808Z,30.65
2023-03-17T08:01:13.095Z,29.87
2023-03-17T08:02:16.611Z,29.84
2023-03-17T08:03:19.445Z,30.01
2023-03-17T08:04:21.433Z,30.21
2023-03-17T08:05:24.164Z,30.44
2023-03-17T08:06:26.572Z,30.20
2023-03-17T08:07:29.448Z,29.66
2023-03-17T08:08:31.823Z,29.88
2023-03-17T08:09:33.984Z,29.35
2023-03-17T08:10:36.254Z,28.61
2023-03-17T08:11:38.657Z,28.06
2023-03-17T08:12:41.750Z,27.87
2023-03-17T08:13:43.826Z,28.48
2023-03-17T08:14:45.795Z,28.77
2023-03-17T08:15:47.894Z,27.68
2023-03-17T08:16:49.858Z,27.89
2023-03-17T08:17:52.044Z,28.59
2023-03-17T08:18:53.990Z,28.97
2023-03-17T08:19:56.873Z,29.30
2023-03-17T08:20:58.803Z,28.62
2023-03-17T08:22:01.415Z,28.98
2023-03-17T08:23:04.012Z,30.16
2023-03-17T08:24:06.620Z,28.79
2023-03-17T08:25:09.787Z,28.72
2023-03-17T08:26:11.748Z,28.23
2023-03-17T08:27:13.651Z,28.50
2023-03-17T08:28:16.437Z,28.37
2023-03-17T08:29:19.009Z,28.71
2023-03-17T08:30:21.628Z,28.66
2023-03-17T08:31:23.655Z,28.40
2023-03-17T08:32:25.646Z,28.62
2023-03-17T08:33:27.909Z,27.71
2023-03-17T08:34:30.009Z,28.10
2023-03-17T08:35:32.178Z,27.56
2023-03-17T08:36:34.428Z,27.13
2023-03-17T08:37:37.900Z,27.06
2023-03-17T08:38:41.715Z,27.42
2023-03-17T08:39:44.939Z,26.90
2023-03-17T08:40:46.865Z,26.88
2023-03-17T08:41:48.854Z,25.74
2023-03-17T08:42:51.233Z,26.13
2023-03-17T08:43:54.719Z,26.26
2023-03-17T08:44:56.890Z,25.91
2023-03-17T08:46:13.647Z,26.32
2023-03-17T08:47:16.248Z,26.81
2023-03-17T08:48:18.118Z,26.76
2023-03-17T08:49:21.703Z,25.61
2023-03-17T08:50:24.286Z,25.89
2023-03-17T08:51:29.705Z,26.16
2023-03-17T08:52:31.656Z,26.61
2023-03-17T08:53:35.112Z,28.44
2023-03-17T08:54:37.482Z,27.50
2023-03-17T08:55:39.432Z,27.30
2023-03-17T08:56:42.227Z,26.14
2023-03-17T08:57:45.061Z,26.43
2023-03-17T08:58:47.688Z,25.53
2023-03-17T08:59:50.028Z,26.26
2023-03-17T09:00:52.628Z,26.42
2023-03-17T09:01:55.761Z,27.50
2023-03-17T09:02:58.358Z,27.45
2023-03-17T09:04:01.050Z,28.21
2023-03-17T09:05:04.145Z,28.24
2023-03-17T09:06:07.791Z,28.06
2023-03-17T09:07:10.475Z,27.98
2023-03-17T09:08:13.144Z,27.69
2023-03-17T09:09:15.260Z,28.50
2023-03-17T09:10:22.501Z,27.04
2023-03-17T09:11:27.801Z,35.43
2023-03-17T09:12:30.014Z,26.84
2023-03-17T09:13:33.277Z,26.00
2023-03-17T09:14:43.435Z,25.44
2023-03-17T09:15:46.366Z,25.53
2023-03-17T09:16:48.822Z,25.63
2023-03-17T09:17:50.941Z,25.37
2023-03-17T09:18:53.789Z,25.48
2023-03-17T09:19:55.983Z,25.76
2023-03-17T09:20:58.198Z,25.28
2023-03-17T09:22:00.658Z,24.44
2023-03-17T09:23:07.953Z,25.40
2023-03-17T09:24:10.143Z,26.62
2023-03-17T09:25:12.358Z,25.76
2023-03-17T09:26:14.843Z,25.85
2023-03-17T09:27:16.870Z,24.89
2023-03-17T09:28:18.954Z,25.31
2023-03-17T09:29:20.790Z,24.72
2023-03-17T09:30:22.928Z,25.05
2023-03-17T09:31:25.310Z,25.43
2023-03-17T09:32:27.386Z,24.88
2023-03-17T09:33:30.131Z,24.59
2023-03-17T09:34:32.275Z,24.93
2023-03-17T09:35:34.258Z,25.83
2023-03-17T09:36:36.616Z,26.40
2023-03-17T09:37:39.119Z,26.42
2023-03-17T09:38:41.129Z,25.69
2023-03-17T09:39:43.108Z,25.80
2023-03-17T09:41:04.237Z,24.87
2023-03-17T09:42:07.536Z,25.25
2023-03-17T09:43:44.209Z,24.51
2023-03-17T09:45:13.406Z,24.33
2023-03-17T09:46:24.527Z,24.55
2023-03-17T09:47:53.650Z,24.83
2023-03-17T09:49:03.973Z,24.23
2023-03-17T09:50:15.936Z,24.21
2023-03-17T09:51:18.964Z,24.35
2023-03-17T09:52:34.113Z,23.96
2023-03-17T09:53:43.775Z,24.83
2023-03-17T09:54:49.615Z,25.71
2023-03-17T09:55:58.990Z,24.81
2023-03-17T09:57:12.669Z,24.71
2023-03-17T09:58:14.649Z,24.17
2023-03-17T09:59:33.249Z,24.03
2023-03-17T10:00:35.754Z,24.46
2023-03-17T10:01:42.325Z,24.92
2023-03-17T10:02:45.026Z,25.51
2023-03-17T10:03:48.014Z,25.81
2023-03-17T10:04:50.216Z,25.80
2023-03-17T10:05:52.805Z,25.89
2023-03-17T10:07:05.198Z,26.32
2023-03-17T10:08:31.106Z,25.67
2023-03-17T10:09:47.691Z,25.62
2023-03-17T10:10:53.644Z,26.09
2023-03-17T10:12:32.675Z,24.92
2023-03-17T10:14:05.754Z,24.39
2023-03-17T10:15:56.010Z,24.64
2023-03-17T10:17:04.294Z,24.69
2023-03-17T10:18:12.658Z,25.07
2023-03-17T10:19:34.881Z,24.51
2023-03-17T10:20:54.586Z,25.62
2023-03-17T10:22:05.252Z,25.34
2023-03-17T10:23:11.806Z,24.63
2023-03-17T10:24:14.450Z,24.44
2023-03-17T10:25:21.990Z,23.75
2023-03-17T10:26:44.350Z,24.11
2023-03-17T10:27:53.715Z,24.31
2023-03-17T10:28:56.140Z,24.62
2023-03-17T10:29:58.019Z,24.00
2023-03-17T10:31:21.276Z,24.77
2023-03-17T10:32:23.246Z,24.54
2023-03-17T10:33:26.584Z,24.63
2023-03-17T10:34:36.686Z,24.74
2023-03-17T10:35:40.572Z,24.79
2023-03-17T10:36:53.174Z,24.75
2023-03-17T10:38:11.811Z,25.28
2023-03-17T10:39:21.878Z,24.56
2023-03-17T10:40:31.358Z,25.41
2023-03-17T10:41:36.690Z,24.36
2023-03-17T10:42:52.243Z,23.92
2023-03-17T10:43:54.677Z,24.47
2023-03-17T10:45:13.216Z,24.24
2023-03-17T10:46:24.351Z,23.65
2023-03-17T10:47:32.198Z,23.92
2023-03-17T10:48:38.764Z,23.73
2023-03-17T10:49:44.285Z,23.93
2023-03-17T10:50:49.367Z,24.51
2023-03-17T10:51:53.900Z,24.66
2023-03-17T10:53:03.354Z,24.73
2023-03-17T10:54:17.898Z,24.26
2023-03-17T10:55:23.122Z,23.99
2023-03-17T10:56:30.057Z,24.37
2023-03-17T10:57:33.051Z,24.62
2023-03-17T10:58:48.959Z,23.69
2023-03-17T10:59:53.997Z,24.53
2023-03-17T11:01:00.409Z,24.25
2023-03-17T11:02:17.951Z,24.01
2023-03-17T11:03:27.657Z,24.32
2023-03-17T11:04:35.608Z,25.07
2023-03-17T11:05:39.744Z,24.71
2023-03-17T11:06:44.388Z,24.27
2023-03-17T11:07:46.358Z,24.46
2023-03-17T11:08:54.736Z,23.90
2023-03-17T11:10:01.078Z,24.26
2023-03-17T11:11:07.353Z,24.02
2023-03-17T11:12:26.456Z,25.17
2023-03-17T11:13:30.299Z,25.13
2023-03-17T11:14:32.946Z,24.55
2023-03-17T11:15:44.114Z,24.87
2023-03-17T11:17:01.140Z,24.36
2023-03-17T11:18:16.975Z,24.35
2023-03-17T11:19:20.321Z,24.08
2023-03-17T11:21:18.585Z,24.10
2023-03-17T11:22:25.813Z,24.14
2023-03-17T11:24:08.269Z,23.35
2023-03-17T11:25:19.688Z,23.74
2023-03-17T11:26:59.134Z,24.38
2023-03-17T11:28:12.027Z,23.34
2023-03-17T11:29:51.630Z,23.36
2023-03-17T11:31:15.413Z,24.36
2023-03-17T11:32:31.555Z,24.77
2023-03-17T11:33:35.586Z,24.91
2023-03-17T11:35:12.451Z,25.34
2023-03-17T11:36:19.983Z,24.60
2023-03-17T11:37:36.848Z,24.80
2023-03-17T11:38:58.508Z,23.79
2023-03-17T11:40:14.444Z,24.11
2023-03-17T11:41:29.471Z,24.73
2023-03-17T11:42:51.313Z,24.42
2023-03-17T11:43:59.709Z,24.71
2023-03-17T11:45:30.637Z,25.00
2023-03-17T11:46:51.479Z,24.69
2023-03-17T11:48:11.961Z,23.84
2023-03-17T11:49:22.801Z,24.85
2023-03-17T11:50:39.320Z,24.43
2023-03-17T11:51:57.471Z,24.17
2023-03-17T11:53:02.777Z,24.04
2023-03-17T11:54:11.003Z,24.11
2023-03-17T11:55:17.692Z,24.07
2023-03-17T11:56:41.602Z,24.21
2023-03-17T11:58:10.559Z,24.23
2023-03-17T11:59:39.462Z,23.54
2023-03-17T12:00:50.757Z,23.11
2023-03-17T12:02:11.172Z,23.41
2023-03-17T12:03:20.876Z,23.53
2023-03-17T12:04:34.629Z,23.52
2023-03-17T12:05:37.357Z,23.34
2023-03-17T12:06:48.149Z,34.09
2023-03-17T12:07:55.505Z,24.45
2023-03-17T12:09:27.939Z,23.77
2023-03-17T12:10:37.872Z,24.25
2023-03-17T12:11:43.369Z,24.40
2023-03-17T12:12:53.198Z,23.72
2023-03-17T12:14:06.358Z,23.54
2023-03-17T12:15:18.850Z,23.59
2023-03-17T12:16:52.551Z,24.07
2023-03-17T12:18:02.856Z,24.29
2023-03-17T12:19:17.699Z,24.01
2023-03-17T12:20:33.606Z,23.64
2023-03-17T12:21:54.271Z,24.14
2023-03-17T12:23:17.635Z,24.07
2023-03-17T12:24:26.831Z,24.83
2023-03-17T12:25:36.896Z,24.32
2023-03-17T12:26:54.051Z,24.88
2023-03-17T12:28:16.053Z,25.30
2023-03-17T12:29:57.001Z,24.76
2023-03-17T12:31:10.019Z,24.89
2023-03-17T12:32:20.272Z,25.33
2023-03-17T12:33:31.194Z,25.41
2023-03-17T12:34:57.086Z,25.23
2023-03-17T12:36:01.329Z,24.58
2023-03-17T12:37:04.013Z,24.38
2023-03-17T12:38:41.202Z,24.72
2023-03-17T12:39:50.280Z,25.36
2023-03-17T12:41:19.920Z,24.56
2023-03-17T12:42:27.457Z,23.76
2023-03-17T12:43:29.271Z,23.48
2023-03-17T12:44:49.844Z,23.12
2023-03-17T12:46:33.013Z,23.33
2023-03-17T12:47:53.465Z,23.63
2023-03-17T12:49:14.324Z,23.66
2023-03-17T12:50:35.332Z,23.08
2023-03-17T12:52:26.091Z,23.21
2023-03-17T12:53:51.519Z,22.39
2023-03-17T12:54:53.813Z,23.56
2023-03-17T12:56:03.301Z,23.64
2023-03-17T12:57:19.396Z,24.49
2023-03-17T12:58:42.526Z,24.29
2023-03-17T12:59:47.764Z,24.48
2023-03-17T13:01:00.390Z,24.95
2023-03-17T13:02:27.084Z,24.33
2023-03-17T13:03:32.230Z,24.72
2023-03-17T13:04:36.663Z,23.84
2023-03-17T13:05:39.375Z,24.67
2023-03-17T13:06:46.597Z,25.18
2023-03-17T13:07:54.820Z,25.50
2023-03-17T13:08:57.863Z,24.83
2023-03-17T13:10:02.606Z,23.36
2023-03-17T13:11:27.231Z,23.74
2023-03-17T13:12:44.368Z,23.85
2023-03-17T13:14:18.658Z,24.57
2023-03-17T13:15:46.861Z,24.61
2023-03-17T13:16:49.585Z,25.31
2023-03-17T13:18:10.505Z,25.26
2023-03-17T13:19:25.516Z,25.32
2023-03-17T13:20:39.070Z,24.98
2023-03-17T13:21:51.920Z,24.69
2023-03-17T13:23:00.451Z,24.41
2023-03-17T13:24:18.566Z,26.69
2023-03-17T13:25:41.896Z,34.96
2023-03-17T13:27:33.955Z,24.99
2023-03-17T13:28:40.778Z,24.45
2023-03-17T13:29:46.207Z,24.30
2023-03-17T13:31:12.396Z,24.23
2023-03-17T13:32:17.180Z,23.73
2023-03-17T13:33:28.865Z,23.86
2023-03-17T13:34:46.337Z,23.39
2023-03-17T13:36:27.286Z,23.59
2023-03-17T13:37:44.885Z,22.95
2023-03-17T13:39:18.335Z,23.30
2023-03-17T13:40:48.496Z,23.49
2023-03-17T13:42:05.529Z,23.79
2023-03-17T13:43:32.043Z,23.76
2023-03-17T13:45:02.367Z,25.04
2023-03-17T13:46:25.463Z,25.52
2023-03-17T13:47:34.840Z,25.31
2023-03-17T13:48:38.072Z,24.42
2023-03-17T13:49:40.579Z,24.41
2023-03-17T13:50:43.022Z,24.72
2023-03-17T13:52:16.330Z,24.23
2023-03-17T13:53:18.357Z,24.27
2023-03-17T13:54:26.507Z,24.62
2023-03-17T13:55:34.977Z,24.11
2023-03-17T13:56:42.555Z,24.40
2023-03-17T13:58:15.971Z,25.28
2023-03-17T13:59:20.278Z,25.15
2023-03-17T14:00:26.704Z,25.53
2023-03-17T14:01:50.627Z,24.68
2023-03-17T14:03:32.581Z,24.38
2023-03-17T14:04:47.591Z,24.94
2023-03-17T14:05:51.585Z,25.16
2023-03-17T14:06:58.254Z,25.02
2023-03-17T14:08:03.696Z,25.39
2023-03-17T14:09:32.014Z,25.31
2023-03-17T14:10:34.331Z,25.34
2023-03-17T14:11:39.297Z,25.12
2023-03-17T14:13:20.671Z,24.67
2023-03-17T14:14:50.067Z,24.57
2023-03-17T14:16:14.593Z,25.00
2023-03-17T14:17:25.631Z,25.08
2023-03-17T14:18:33.145Z,25.03